Time;durP1;ratioP1;P1;durP2;ratioP2;P2;SDS_P1;SDS_P2;PMS_P1;PMS_P2;Temp;Humidity;BMP_temperature;BMP_pressure;BME280_temperature;BME280_humidity;BME280_pressure;Samples;Min_cycle;Max_cycle;Signal;HPM_P1;HPM_P2
2022/05/30 00:00:41;;;;;;;5.65;0.95;;;;;;;;;;4920390;29;20566;-68
2022/05/30 00:03:09;;;;;;;5.03;0.90;;;;;;;;;;4935937;28;20052;-68
2022/05/30 00:05:36;;;;;;;6.13;1.00;;;;;;;;;;4924583;29;20079;-68
2022/05/30 00:08:05;;;;;;;5.75;1.65;;;;;;;;;;4943613;28;20190;-68
2022/05/30 00:10:32;;;;;;;7.72;1.35;;;;;;;;;;4944053;28;20438;-68
2022/05/30 00:12:59;;;;;;;4.88;1.25;;;;;;;;;;4941753;29;20455;-68
2022/05/30 00:15:26;;;;;;;5.75;1.20;;;;;;;;;;4944258;29;20055;-67
2022/05/30 00:17:57;;;;;;;7.18;1.50;;;;;;;;;;4923773;29;20487;-67
2022/05/30 00:20:25;;;;;;;8.85;1.13;;;;;;;;;;4943089;29;20118;-67
2022/05/30 00:22:52;;;;;;;8.98;1.27;;;;;;;;;;4943170;29;20055;-67
2022/05/30 00:25:21;;;;;;;5.25;1.20;;;;;;;;;;4945184;29;20051;-67
2022/05/30 00:27:48;;;;;;;7.13;1.10;;;;;;;;;;4918410;29;20142;-67
2022/05/30 00:30:16;;;;;;;6.72;1.10;;;;;;;;;;4926284;29;20909;-67
2022/05/30 00:32:43;;;;;;;6.70;1.35;;;;;;;;;;4945668;29;20463;-67
2022/05/30 00:35:11;;;;;;;9.75;1.30;;;;;;;;;;4926502;29;20047;-67
2022/05/30 00:37:38;;;;;;;7.93;1.08;;;;;;;;;;4946721;29;20585;-67
2022/05/30 00:40:06;;;;;;;4.70;1.15;;;;;;;;;;4940264;29;20059;-67
2022/05/30 00:42:35;;;;;;;11.35;1.50;;;;;;;;;;4942615;29;20059;-67
2022/05/30 00:45:02;;;;;;;8.00;1.70;;;;;;;;;;4925683;28;20138;-67
2022/05/30 00:47:29;;;;;;;7.72;1.52;;;;;;;;;;4938452;29;20056;-67
2022/05/30 00:49:57;;;;;;;9.43;1.30;;;;;;;;;;4942871;29;20055;-67
2022/05/30 00:52:26;;;;;;;7.50;1.40;;;;;;;;;;4922162;29;20177;-67
2022/05/30 00:54:54;;;;;;;9.48;1.48;;;;;;;;;;4946164;29;20549;-67
2022/05/30 00:57:22;;;;;;;4.03;1.25;;;;;;;;;;4943025;29;20050;-67
2022/05/30 00:59:54;;;;;;;8.98;1.40;;;;;;;;;;4940632;28;20047;-67
2022/05/30 01:02:21;;;;;;;6.03;1.50;;;;;;;;;;4943456;29;20055;-67
2022/05/30 01:07:33;;;;;;;8.65;1.55;;;;;;;;;;4942825;29;20165;-67
2022/05/30 01:10:02;;;;;;;5.32;1.70;;;;;;;;;;4940965;29;20446;-67
2022/05/30 01:12:37;;;;;;;7.82;2.10;;;;;;;;;;4923887;29;20577;-67
2022/05/30 01:15:07;;;;;;;8.40;1.52;;;;;;;;;;4925861;29;20158;-67
2022/05/30 01:17:35;;;;;;;7.43;1.55;;;;;;;;;;4920330;29;20113;-67
2022/05/30 01:20:06;;;;;;;9.88;1.60;;;;;;;;;;4925013;29;20115;-67
2022/05/30 01:22:47;;;;;;;10.40;1.63;;;;;;;;;;4944359;29;20143;-67
2022/05/30 01:25:20;;;;;;;6.22;1.65;;;;;;;;;;4940638;29;20435;-67
2022/05/30 01:27:51;;;;;;;7.13;1.60;;;;;;;;;;4940590;29;20061;-67
2022/05/30 01:30:20;;;;;;;7.05;1.90;;;;;;;;;;4945095;29;20043;-67
2022/05/30 01:32:47;;;;;;;8.43;2.25;;;;;;;;;;4941732;28;20055;-67
2022/05/30 01:35:23;;;;;;;9.95;2.22;;;;;;;;;;4943844;29;20062;-67
2022/05/30 01:37:50;;;;;;;8.15;2.25;;;;;;;;;;4922661;29;20130;-67
2022/05/30 01:40:18;;;;;;;8.98;2.05;;;;;;;;;;4940918;29;20054;-67
2022/05/30 01:42:45;;;;;;;9.93;2.53;;;;;;;;;;4937964;29;20075;-67
2022/05/30 01:45:12;;;;;;;7.30;1.90;;;;;;;;;;4920735;29;20051;-67
2022/05/30 01:47:41;;;;;;;9.80;2.45;;;;;;;;;;4939056;29;20062;-67
2022/05/30 01:50:08;;;;;;;7.88;2.10;;;;;;;;;;4939382;29;20055;-67
2022/05/30 01:52:36;;;;;;;8.95;2.70;;;;;;;;;;4938153;29;20118;-67
2022/05/30 01:55:03;;;;;;;9.85;2.25;;;;;;;;;;4938563;29;20054;-67
2022/05/30 01:57:30;;;;;;;8.50;1.70;;;;;;;;;;4940858;29;20154;-67
2022/05/30 01:59:57;;;;;;;9.00;2.05;;;;;;;;;;4937535;29;20110;-67
2022/05/30 02:02:25;;;;;;;6.10;1.90;;;;;;;;;;4941653;29;21721;-67
2022/05/30 02:04:54;;;;;;;9.80;2.25;;;;;;;;;;4940942;29;20047;-67
2022/05/30 02:07:21;;;;;;;6.93;1.77;;;;;;;;;;4924525;29;21583;-67
2022/05/30 02:09:49;;;;;;;6.40;1.90;;;;;;;;;;4925169;29;20652;-67
2022/05/30 02:12:16;;;;;;;10.20;2.20;;;;;;;;;;4942951;29;20422;-67
2022/05/30 02:14:44;;;;;;;16.30;2.70;;;;;;;;;;4945776;28;20514;-67
2022/05/30 02:17:10;;;;;;;5.43;2.05;;;;;;;;;;4938207;28;20056;-67
2022/05/30 02:19:39;;;;;;;6.90;2.00;;;;;;;;;;4942685;29;20458;-67
2022/05/30 02:22:08;;;;;;;7.85;1.90;;;;;;;;;;4923574;29;20059;-67
2022/05/30 02:24:35;;;;;;;8.35;2.45;;;;;;;;;;4922942;29;20052;-67
2022/05/30 02:27:03;;;;;;;10.68;2.67;;;;;;;;;;4927382;29;20059;-67
2022/05/30 02:29:30;;;;;;;6.07;1.92;;;;;;;;;;4924399;29;20066;-67
2022/05/30 02:31:57;;;;;;;8.50;2.22;;;;;;;;;;4945345;29;20060;-67
2022/05/30 02:37:10;;;;;;;9.70;2.67;;;;;;;;;;4942051;28;20757;-67
2022/05/30 02:39:38;;;;;;;8.98;3.10;;;;;;;;;;4939775;29;20051;-67
2022/05/30 02:42:06;;;;;;;18.70;3.30;;;;;;;;;;4925139;29;20059;-66
2022/05/30 02:44:33;;;;;;;10.90;2.60;;;;;;;;;;4943336;29;20047;-66
2022/05/30 02:47:00;;;;;;;11.40;3.35;;;;;;;;;;4940462;29;20102;-66
2022/05/30 02:49:28;;;;;;;10.00;2.47;;;;;;;;;;4945776;29;20546;-66
2022/05/30 02:51:56;;;;;;;11.63;3.20;;;;;;;;;;4943105;29;20838;-66
2022/05/30 02:54:25;;;;;;;10.50;2.45;;;;;;;;;;4925043;29;20138;-66
2022/05/30 02:56:52;;;;;;;4.10;2.30;;;;;;;;;;4942193;28;20056;-66
2022/05/30 02:59:20;;;;;;;6.00;2.50;;;;;;;;;;4943689;28;20121;-66
2022/05/30 03:01:47;;;;;;;5.60;1.85;;;;;;;;;;4943861;29;20047;-66
2022/05/30 03:04:15;;;;;;;6.20;2.05;;;;;;;;;;4924736;29;20153;-66
2022/05/30 03:06:43;;;;;;;6.07;2.05;;;;;;;;;;4926613;29;20044;-66
2022/05/30 03:09:10;;;;;;;10.23;2.10;;;;;;;;;;4940515;29;20055;-66
2022/05/30 03:11:39;;;;;;;11.85;2.00;;;;;;;;;;4945002;29;20502;-66
2022/05/30 03:14:06;;;;;;;7.72;1.42;;;;;;;;;;4945753;29;20047;-66
2022/05/30 03:16:34;;;;;;;6.88;1.70;;;;;;;;;;4942254;29;20055;-66
2022/05/30 03:19:01;;;;;;;6.68;1.83;;;;;;;;;;4945283;28;20176;-66
2022/05/30 03:21:28;;;;;;;6.43;1.65;;;;;;;;;;4945817;28;20115;-66
2022/05/30 03:23:56;;;;;;;7.30;1.50;;;;;;;;;;4942585;29;20494;-66
2022/05/30 03:26:23;;;;;;;5.60;1.77;;;;;;;;;;4943657;29;20066;-66
2022/05/30 03:28:51;;;;;;;6.85;1.50;;;;;;;;;;4927133;29;20063;-66
2022/05/30 03:31:19;;;;;;;7.53;1.27;;;;;;;;;;4942274;29;20047;-66
2022/05/30 03:33:46;;;;;;;11.10;2.00;;;;;;;;;;4946365;29;20050;-66
2022/05/30 03:36:14;;;;;;;6.47;1.73;;;;;;;;;;4947386;29;20051;-66
2022/05/30 03:38:41;;;;;;;5.47;1.27;;;;;;;;;;4945782;29;20118;-66
2022/05/30 03:41:08;;;;;;;5.28;1.08;;;;;;;;;;4946390;28;20102;-66
2022/05/30 03:43:36;;;;;;;3.17;0.77;;;;;;;;;;4944126;29;20102;-66
2022/05/30 03:46:04;;;;;;;5.57;1.00;;;;;;;;;;4943474;29;20071;-66
2022/05/30 03:48:31;;;;;;;5.93;1.40;;;;;;;;;;4947025;29;20051;-66
2022/05/30 03:50:59;;;;;;;3.00;0.70;;;;;;;;;;4941452;29;20047;-66
2022/05/30 03:53:26;;;;;;;5.03;0.93;;;;;;;;;;4924687;29;20055;-66
2022/05/30 03:55:53;;;;;;;4.53;0.77;;;;;;;;;;4944401;29;20505;-66
2022/05/30 03:58:21;;;;;;;2.17;1.00;;;;;;;;;;4942525;29;20051;-66
2022/05/30 04:00:48;;;;;;;5.45;0.80;;;;;;;;;;4928175;29;20059;-66
2022/05/30 04:03:17;;;;;;;6.22;0.98;;;;;;;;;;4927473;29;20589;-66
2022/05/30 04:05:44;;;;;;;1.83;0.52;;;;;;;;;;4927172;29;20491;-66
2022/05/30 04:08:11;;;;;;;3.45;0.75;;;;;;;;;;4925860;29;20051;-66
2022/05/30 04:10:38;;;;;;;5.72;0.93;;;;;;;;;;4945972;29;20503;-66
2022/05/30 04:13:09;;;;;;;4.78;1.08;;;;;;;;;;4943407;29;20557;-66
2022/05/30 04:15:36;;;;;;;7.18;0.90;;;;;;;;;;4946445;29;20051;-66
2022/05/30 04:18:04;;;;;;;6.80;0.80;;;;;;;;;;4926807;29;20055;-66
2022/05/30 04:20:33;;;;;;;6.65;0.90;;;;;;;;;;4944985;28;20491;-66
2022/05/30 04:23:00;;;;;;;5.60;0.60;;;;;;;;;;4927015;29;20058;-66
2022/05/30 04:25:27;;;;;;;2.95;0.57;;;;;;;;;;4945959;29;20044;-66
2022/05/30 04:27:54;;;;;;;4.43;0.98;;;;;;;;;;4926400;29;20055;-66
2022/05/30 04:30:22;;;;;;;5.95;0.80;;;;;;;;;;4946522;29;20614;-66
2022/05/30 04:32:49;;;;;;;4.85;0.88;;;;;;;;;;4944752;29;20059;-66
2022/05/30 04:35:16;;;;;;;4.93;1.23;;;;;;;;;;4946163;29;20113;-66
2022/05/30 04:37:47;;;;;;;4.70;1.17;;;;;;;;;;4947506;29;20173;-66
2022/05/30 04:40:17;;;;;;;3.42;0.73;;;;;;;;;;4923556;29;20055;-66
2022/05/30 04:42:45;;;;;;;3.10;0.90;;;;;;;;;;4944953;29;20055;-66
2022/05/30 04:45:13;;;;;;;3.33;0.80;;;;;;;;;;4922686;29;20062;-66
2022/05/30 04:47:40;;;;;;;4.03;0.88;;;;;;;;;;4942253;29;20556;-66
2022/05/30 04:50:09;;;;;;;2.80;0.85;;;;;;;;;;4946366;29;20102;-66
2022/05/30 04:52:36;;;;;;;5.30;0.80;;;;;;;;;;4947535;29;20078;-66
2022/05/30 04:55:05;;;;;;;4.53;1.50;;;;;;;;;;4923479;29;20046;-66
2022/05/30 04:57:32;;;;;;;1.77;0.98;;;;;;;;;;4945214;29;20106;-66
2022/05/30 04:59:59;;;;;;;2.88;0.88;;;;;;;;;;4946932;29;20055;-66
2022/05/30 05:02:27;;;;;;;3.65;0.98;;;;;;;;;;4940345;29;20090;-66
2022/05/30 05:04:54;;;;;;;6.95;1.15;;;;;;;;;;4939535;28;20478;-66
2022/05/30 05:07:21;;;;;;;2.40;0.80;;;;;;;;;;4919926;29;20074;-66
2022/05/30 05:09:52;;;;;;;7.53;0.90;;;;;;;;;;4940057;29;20458;-66
2022/05/30 05:12:20;;;;;;;3.75;0.98;;;;;;;;;;4923224;29;20131;-66
2022/05/30 05:14:48;;;;;;;6.72;1.13;;;;;;;;;;4934917;29;21590;-67
2022/05/30 05:17:15;;;;;;;3.83;1.25;;;;;;;;;;4913494;29;20563;-67
2022/05/30 05:19:43;;;;;;;4.60;1.00;;;;;;;;;;4937344;29;20202;-67
2022/05/30 05:22:13;;;;;;;7.22;1.40;;;;;;;;;;4917578;29;20059;-67
2022/05/30 05:24:41;;;;;;;6.75;1.17;;;;;;;;;;4937921;29;20389;-66
2022/05/30 05:27:08;;;;;;;3.53;0.98;;;;;;;;;;4936796;29;20051;-66
2022/05/30 05:29:36;;;;;;;8.27;2.15;;;;;;;;;;4936954;29;20047;-67
2022/05/30 05:32:04;;;;;;;2.67;0.98;;;;;;;;;;4919861;29;20106;-67
2022/05/30 05:34:31;;;;;;;6.72;1.35;;;;;;;;;;4942322;29;20466;-67
2022/05/30 05:36:58;;;;;;;5.00;1.45;;;;;;;;;;4937545;29;20054;-67
2022/05/30 05:39:25;;;;;;;2.97;0.90;;;;;;;;;;4917022;29;20055;-67
2022/05/30 05:41:52;;;;;;;9.05;1.15;;;;;;;;;;4917747;29;20117;-66
2022/05/30 05:44:20;;;;;;;5.22;1.10;;;;;;;;;;4939679;29;20122;-66
2022/05/30 05:46:48;;;;;;;6.60;0.90;;;;;;;;;;4922199;29;20490;-67
2022/05/30 05:49:15;;;;;;;7.10;1.52;;;;;;;;;;4923452;29;20063;-67
2022/05/30 05:51:43;;;;;;;6.38;1.40;;;;;;;;;;4921978;29;20110;-66
2022/05/30 05:54:10;;;;;;;9.13;1.10;;;;;;;;;;4938707;29;20102;-66
2022/05/30 05:56:38;;;;;;;5.25;1.02;;;;;;;;;;4938774;29;20419;-66
2022/05/30 05:59:05;;;;;;;6.13;1.10;;;;;;;;;;4940441;29;20048;-66
2022/05/30 06:01:33;;;;;;;8.18;0.93;;;;;;;;;;4942462;29;20411;-66
2022/05/30 06:04:03;;;;;;;5.68;1.00;;;;;;;;;;4929437;29;20694;-66
2022/05/30 06:06:31;;;;;;;3.78;1.00;;;;;;;;;;4928565;29;20051;-66
2022/05/30 06:08:59;;;;;;;4.30;0.90;;;;;;;;;;4934297;29;20063;-66
2022/05/30 06:11:27;;;;;;;6.00;1.30;;;;;;;;;;4944258;29;20145;-66
2022/05/30 06:13:54;;;;;;;5.10;0.93;;;;;;;;;;4926571;29;20059;-66
2022/05/30 06:16:22;;;;;;;2.78;0.70;;;;;;;;;;4920681;29;20074;-66
2022/05/30 06:18:50;;;;;;;3.13;0.60;;;;;;;;;;4928815;29;20052;-66
2022/05/30 06:21:18;;;;;;;7.65;0.90;;;;;;;;;;4927478;29;20088;-66
2022/05/30 06:23:46;;;;;;;5.07;0.60;;;;;;;;;;4928910;29;20259;-66
2022/05/30 06:26:14;;;;;;;3.22;0.60;;;;;;;;;;4925360;29;20103;-66
2022/05/30 06:28:42;;;;;;;4.00;0.60;;;;;;;;;;4933846;29;20051;-66
2022/05/30 06:31:10;;;;;;;5.70;0.77;;;;;;;;;;4922554;29;20115;-66
2022/05/30 06:33:37;;;;;;;6.85;1.02;;;;;;;;;;4916613;29;20080;-66
2022/05/30 06:36:05;;;;;;;5.80;0.95;;;;;;;;;;4918232;29;20127;-66
2022/05/30 06:38:34;;;;;;;2.38;0.65;;;;;;;;;;4921160;29;20047;-66
2022/05/30 06:41:09;;;;;;;7.82;1.05;;;;;;;;;;4920437;29;20764;-66
2022/05/30 06:43:36;;;;;;;7.25;1.25;;;;;;;;;;4917757;29;20064;-66
2022/05/30 06:46:03;;;;;;;5.38;0.70;;;;;;;;;;4919392;29;20131;-66
2022/05/30 06:48:31;;;;;;;2.90;1.00;;;;;;;;;;4929098;29;20122;-66
2022/05/30 06:50:58;;;;;;;4.03;0.70;;;;;;;;;;4922007;29;20056;-66
2022/05/30 06:53:26;;;;;;;1.15;0.30;;;;;;;;;;4918444;29;20070;-67
2022/05/30 06:55:54;;;;;;;2.55;0.60;;;;;;;;;;4922473;29;20510;-67
2022/05/30 06:58:22;;;;;;;1.58;0.40;;;;;;;;;;4917654;29;20060;-67
2022/05/30 07:00:49;;;;;;;1.55;0.45;;;;;;;;;;4916544;29;20110;-67
2022/05/30 07:03:17;;;;;;;1.15;0.35;;;;;;;;;;4917288;29;20669;-67
2022/05/30 07:05:45;;;;;;;1.05;0.30;;;;;;;;;;4917292;29;20811;-67
2022/05/30 07:08:13;;;;;;;1.77;0.30;;;;;;;;;;4916954;29;20091;-67
2022/05/30 07:10:41;;;;;;;2.75;0.47;;;;;;;;;;4918546;29;20151;-67
2022/05/30 07:13:10;;;;;;;1.80;0.28;;;;;;;;;;4919319;29;20059;-67
2022/05/30 07:15:38;;;;;;;4.35;0.52;;;;;;;;;;4939277;29;20051;-67
2022/05/30 07:18:09;;;;;;;4.10;0.47;;;;;;;;;;4937491;29;20430;-67
2022/05/30 07:20:36;;;;;;;2.00;0.38;;;;;;;;;;4918596;29;20110;-67
2022/05/30 07:23:04;;;;;;;1.48;0.57;;;;;;;;;;4937423;29;20044;-67
2022/05/30 07:25:31;;;;;;;2.60;0.40;;;;;;;;;;4938574;29;20052;-67
2022/05/30 07:27:58;;;;;;;3.38;0.30;;;;;;;;;;4936129;29;20458;-67
2022/05/30 07:30:27;;;;;;;2.30;0.40;;;;;;;;;;4938534;29;20055;-67
2022/05/30 07:32:55;;;;;;;1.95;0.40;;;;;;;;;;4941101;29;20051;-67
2022/05/30 07:35:23;;;;;;;2.90;0.55;;;;;;;;;;4941218;29;20518;-67
2022/05/30 07:37:50;;;;;;;1.08;0.40;;;;;;;;;;4924034;29;20055;-67
2022/05/30 07:40:18;;;;;;;3.28;0.50;;;;;;;;;;4942600;28;20063;-67
2022/05/30 07:42:45;;;;;;;4.15;0.85;;;;;;;;;;4940833;29;20415;-67
2022/05/30 07:45:12;;;;;;;2.42;0.63;;;;;;;;;;4940762;29;20055;-67
2022/05/30 07:47:41;;;;;;;5.30;0.70;;;;;;;;;;4925488;29;20050;-67
2022/05/30 07:50:09;;;;;;;4.40;0.90;;;;;;;;;;4942134;29;20098;-67
2022/05/30 07:52:36;;;;;;;3.83;0.63;;;;;;;;;;4940130;29;20055;-67
2022/05/30 07:55:04;;;;;;;5.45;0.80;;;;;;;;;;4940939;28;20054;-67
2022/05/30 08:00:17;;;;;;;6.65;0.80;;;;;;;;;;4946975;29;20050;-67
2022/05/30 08:02:46;;;;;;;6.15;0.90;;;;;;;;;;4949113;29;20058;-67
2022/05/30 08:05:14;;;;;;;5.15;0.77;;;;;;;;;;4929819;29;20059;-67
2022/05/30 08:07:43;;;;;;;4.25;0.60;;;;;;;;;;4942351;29;20044;-67
2022/05/30 08:10:11;;;;;;;2.28;0.43;;;;;;;;;;4927192;29;20146;-67
2022/05/30 08:12:38;;;;;;;7.68;0.93;;;;;;;;;;4948503;29;20042;-67
2022/05/30 08:15:06;;;;;;;2.15;0.50;;;;;;;;;;4928875;29;20055;-67
2022/05/30 08:17:34;;;;;;;6.95;0.90;;;;;;;;;;4929390;29;20059;-67
2022/05/30 08:20:02;;;;;;;5.13;1.05;;;;;;;;;;4925767;29;20146;-67
2022/05/30 08:22:30;;;;;;;3.92;0.73;;;;;;;;;;4929213;29;20059;-67
2022/05/30 08:24:57;;;;;;;3.58;0.50;;;;;;;;;;4926441;29;20059;-67
2022/05/30 08:27:24;;;;;;;4.00;0.90;;;;;;;;;;4924213;29;20073;-67
2022/05/30 08:29:51;;;;;;;2.72;0.50;;;;;;;;;;4905528;29;20418;-67
2022/05/30 08:32:18;;;;;;;4.88;0.70;;;;;;;;;;4901682;29;20154;-67
2022/05/30 08:34:46;;;;;;;2.47;0.65;;;;;;;;;;4919463;29;20048;-67
2022/05/30 08:37:14;;;;;;;4.88;0.80;;;;;;;;;;4912237;29;20063;-67
2022/05/30 08:42:28;;;;;;;6.13;0.68;;;;;;;;;;4918385;29;20051;-67
2022/05/30 08:44:56;;;;;;;1.63;0.50;;;;;;;;;;4919212;29;20506;-67
2022/05/30 08:47:32;;;;;;;7.22;1.08;;;;;;;;;;4901900;29;20047;-67
2022/05/30 08:50:04;;;;;;;3.15;0.80;;;;;;;;;;4920592;29;20055;-67
2022/05/30 08:52:38;;;;;;;3.33;0.70;;;;;;;;;;4917258;29;20056;-67
2022/05/30 08:55:09;;;;;;;3.53;0.85;;;;;;;;;;4919198;29;20055;-67
2022/05/30 08:57:40;;;;;;;1.92;0.47;;;;;;;;;;4903532;29;20058;-67
2022/05/30 09:00:10;;;;;;;2.97;0.57;;;;;;;;;;4901027;29;20152;-67
2022/05/30 09:02:39;;;;;;;3.30;0.82;;;;;;;;;;4903764;29;20067;-67
2022/05/30 09:05:08;;;;;;;4.57;0.77;;;;;;;;;;4920544;29;20056;-67
2022/05/30 09:07:39;;;;;;;4.65;1.02;;;;;;;;;;4923317;29;20483;-67
2022/05/30 09:10:10;;;;;;;4.82;0.80;;;;;;;;;;4904361;29;20463;-67
2022/05/30 09:12:39;;;;;;;7.20;0.82;;;;;;;;;;4921206;29;20631;-67
2022/05/30 09:15:11;;;;;;;3.58;0.75;;;;;;;;;;4922514;29;20055;-67
2022/05/30 09:17:41;;;;;;;2.20;0.60;;;;;;;;;;4924968;29;20047;-67
2022/05/30 09:20:12;;;;;;;3.15;0.70;;;;;;;;;;4921573;29;20060;-67
2022/05/30 09:22:41;;;;;;;3.50;0.70;;;;;;;;;;4917440;29;20060;-67
2022/05/30 09:27:57;;;;;;;4.68;1.00;;;;;;;;;;4920523;29;20164;-67
2022/05/30 09:30:27;;;;;;;6.57;0.70;;;;;;;;;;4916662;29;20051;-67
2022/05/30 09:33:01;;;;;;;1.83;0.50;;;;;;;;;;4921414;29;20431;-67
2022/05/30 09:35:30;;;;;;;2.33;0.50;;;;;;;;;;4928156;29;20065;-67
2022/05/30 09:38:09;;;;;;;3.85;0.47;;;;;;;;;;4920203;29;20083;-67
2022/05/30 09:40:39;;;;;;;2.60;0.60;;;;;;;;;;4921911;29;20482;-67
2022/05/30 09:43:07;;;;;;;4.68;0.85;;;;;;;;;;4914433;29;20075;-67
2022/05/30 09:45:34;;;;;;;2.45;0.50;;;;;;;;;;4918475;29;20059;-67
2022/05/30 09:48:02;;;;;;;3.33;0.60;;;;;;;;;;4921014;29;20059;-67
2022/05/30 09:50:30;;;;;;;2.40;0.63;;;;;;;;;;4918664;29;20554;-67
2022/05/30 09:52:58;;;;;;;3.10;0.40;;;;;;;;;;4921389;29;20697;-67
2022/05/30 09:55:28;;;;;;;4.00;0.38;;;;;;;;;;4923921;29;20052;-67
2022/05/30 09:57:57;;;;;;;5.68;0.60;;;;;;;;;;4919168;29;20126;-67
2022/05/30 10:00:34;;;;;;;2.55;0.50;;;;;;;;;;4919663;29;20139;-67
2022/05/30 10:03:03;;;;;;;3.30;0.60;;;;;;;;;;4923567;29;20145;-67
2022/05/30 10:05:32;;;;;;;1.73;0.40;;;;;;;;;;4927712;29;20448;-67
2022/05/30 10:08:00;;;;;;;2.60;0.40;;;;;;;;;;4922565;29;20107;-67
2022/05/30 10:10:31;;;;;;;2.55;0.43;;;;;;;;;;4916870;29;20058;-67
2022/05/30 10:12:59;;;;;;;2.13;0.40;;;;;;;;;;4920903;29;20773;-67
2022/05/30 10:15:28;;;;;;;1.33;0.30;;;;;;;;;;4926228;28;20337;-67
2022/05/30 10:17:57;;;;;;;2.80;0.43;;;;;;;;;;4927014;29;20052;-67
2022/05/30 10:20:26;;;;;;;2.60;0.50;;;;;;;;;;4947295;28;20047;-67
2022/05/30 10:28:41;;;;;;;3.50;0.55;;;;;;;;;;4950012;28;20054;-67
2022/05/30 10:31:14;;;;;;;3.03;0.50;;;;;;;;;;4929534;28;20055;-67
2022/05/30 10:34:02;;;;;;;4.43;0.70;;;;;;;;;;4928706;29;20391;-67
2022/05/30 10:36:35;;;;;;;3.97;0.52;;;;;;;;;;4939640;28;20055;-67
2022/05/30 10:39:11;;;;;;;3.08;0.45;;;;;;;;;;4926539;28;20051;-67
2022/05/30 10:41:44;;;;;;;3.35;0.82;;;;;;;;;;4930558;29;20138;-67
2022/05/30 10:44:14;;;;;;;4.80;0.80;;;;;;;;;;4930288;29;20067;-67
2022/05/30 10:46:44;;;;;;;4.68;0.82;;;;;;;;;;4930047;29;20047;-67
2022/05/30 10:49:13;;;;;;;4.20;0.55;;;;;;;;;;4929300;28;20141;-67
2022/05/30 10:51:43;;;;;;;3.70;0.93;;;;;;;;;;4931854;29;20410;-67
2022/05/30 10:54:16;;;;;;;3.90;0.80;;;;;;;;;;4950301;28;20055;-67
2022/05/30 10:56:49;;;;;;;4.13;0.60;;;;;;;;;;4949354;28;20055;-67
2022/05/30 10:59:21;;;;;;;3.13;0.57;;;;;;;;;;4928963;28;20055;-68
2022/05/30 11:01:50;;;;;;;5.05;0.82;;;;;;;;;;4943450;28;20056;-68
2022/05/30 11:04:23;;;;;;;3.13;0.90;;;;;;;;;;4930872;28;20059;-68
2022/05/30 11:06:51;;;;;;;4.80;0.60;;;;;;;;;;4931405;29;20192;-68
2022/05/30 11:09:21;;;;;;;3.33;0.70;;;;;;;;;;4931607;28;20054;-68
2022/05/30 11:11:52;;;;;;;2.47;0.60;;;;;;;;;;4933142;29;20078;-68
2022/05/30 11:14:25;;;;;;;2.42;0.50;;;;;;;;;;4949480;28;20055;-68
2022/05/30 11:16:55;;;;;;;3.53;0.90;;;;;;;;;;4931803;28;20062;-68
2022/05/30 11:19:25;;;;;;;3.80;0.80;;;;;;;;;;4949144;28;20054;-68
2022/05/30 11:21:54;;;;;;;3.60;0.80;;;;;;;;;;4942908;28;20055;-68
2022/05/30 11:24:21;;;;;;;2.13;0.60;;;;;;;;;;4925960;29;20047;-68
2022/05/30 11:27:09;;;;;;;2.15;0.60;;;;;;;;;;4931248;29;20845;-68
2022/05/30 11:29:51;;;;;;;3.45;0.65;;;;;;;;;;4944829;28;20087;-68
2022/05/30 11:32:28;;;;;;;3.95;0.57;;;;;;;;;;4928869;29;20059;-68
2022/05/30 11:35:01;;;;;;;2.13;0.65;;;;;;;;;;4949071;28;20058;-68
2022/05/30 11:37:40;;;;;;;1.63;0.40;;;;;;;;;;4925687;29;20055;-68
2022/05/30 11:40:15;;;;;;;2.72;0.50;;;;;;;;;;4924327;29;20058;-68
2022/05/30 11:42:48;;;;;;;3.40;0.60;;;;;;;;;;4944464;28;20511;-68
2022/05/30 11:45:22;;;;;;;3.88;0.50;;;;;;;;;;4943345;28;20584;-68
2022/05/30 11:47:52;;;;;;;1.42;0.40;;;;;;;;;;4944051;28;20513;-68
2022/05/30 11:50:26;;;;;;;2.58;0.50;;;;;;;;;;4944100;28;20549;-68
2022/05/30 11:53:19;;;;;;;1.60;0.50;;;;;;;;;;4930000;28;20550;-68
2022/05/30 11:55:49;;;;;;;3.23;0.57;;;;;;;;;;4942623;28;20055;-69
2022/05/30 11:58:19;;;;;;;3.08;0.60;;;;;;;;;;4923036;29;20912;-68
2022/05/30 12:00:48;;;;;;;2.90;0.70;;;;;;;;;;4949644;28;20455;-68
2022/05/30 12:03:32;;;;;;;4.18;0.55;;;;;;;;;;4926740;28;20564;-68
2022/05/30 12:06:09;;;;;;;5.70;0.85;;;;;;;;;;4924344;29;20625;-68
2022/05/30 12:08:57;;;;;;;3.00;0.80;;;;;;;;;;4941145;28;20087;-68
2022/05/30 12:11:35;;;;;;;1.55;0.47;;;;;;;;;;4921096;28;20058;-68
2022/05/30 12:14:10;;;;;;;1.45;0.40;;;;;;;;;;4944419;28;20055;-68
2022/05/30 12:16:48;;;;;;;0.80;0.30;;;;;;;;;;4924467;29;20755;-68
2022/05/30 12:24:59;;;;;;;2.95;0.77;;;;;;;;;;4926433;28;20150;-69
2022/05/30 12:27:39;;;;;;;1.50;0.50;;;;;;;;;;4923174;29;20062;-69
2022/05/30 12:30:36;;;;;;;1.75;0.50;;;;;;;;;;4925831;29;20074;-69
2022/05/30 12:33:24;;;;;;;1.90;0.50;;;;;;;;;;4939369;28;20083;-69
2022/05/30 12:36:16;;;;;;;1.80;0.30;;;;;;;;;;4940510;28;20675;-69
2022/05/30 12:38:53;;;;;;;1.60;0.47;;;;;;;;;;4929505;28;20051;-68
2022/05/30 12:41:22;;;;;;;1.27;0.40;;;;;;;;;;4945522;28;20051;-68
2022/05/30 12:43:49;;;;;;;4.35;0.68;;;;;;;;;;4945438;28;20059;-68
2022/05/30 12:46:18;;;;;;;1.92;0.47;;;;;;;;;;4941152;28;20047;-68
2022/05/30 12:48:59;;;;;;;1.55;0.40;;;;;;;;;;4926648;28;20510;-68
2022/05/30 12:51:27;;;;;;;2.13;0.50;;;;;;;;;;4936337;28;20066;-68
2022/05/30 12:54:23;;;;;;;2.53;0.63;;;;;;;;;;4931983;29;20055;-68
2022/05/30 12:57:04;;;;;;;1.75;0.40;;;;;;;;;;4943464;28;20054;-68
2022/05/30 12:59:33;;;;;;;2.35;0.60;;;;;;;;;;4940385;28;20063;-68
2022/05/30 13:02:01;;;;;;;4.28;0.90;;;;;;;;;;4926137;29;20050;-68
2022/05/30 13:04:37;;;;;;;3.63;0.90;;;;;;;;;;5094468;27;20400;-67
2022/05/30 13:07:13;;;;;;;2.85;0.60;;;;;;;;;;5096212;28;20689;-67
2022/05/30 13:09:41;;;;;;;2.38;0.80;;;;;;;;;;5092569;28;20047;-67
2022/05/30 13:12:21;;;;;;;1.67;0.50;;;;;;;;;;5096633;28;20052;-67
2022/05/30 13:15:10;;;;;;;3.47;0.47;;;;;;;;;;5091052;28;20044;-67
2022/05/30 13:17:51;;;;;;;1.77;0.57;;;;;;;;;;5093465;28;20059;-67
2022/05/30 13:20:21;;;;;;;2.38;0.70;;;;;;;;;;5093841;28;20139;-67
2022/05/30 13:22:49;;;;;;;3.08;0.55;;;;;;;;;;5093542;28;20081;-67
2022/05/30 13:25:19;;;;;;;1.67;0.43;;;;;;;;;;5091426;28;20056;-67
2022/05/30 13:27:47;;;;;;;2.95;0.40;;;;;;;;;;5091470;28;20102;-67
2022/05/30 13:30:16;;;;;;;3.55;0.77;;;;;;;;;;5088557;28;20447;-67
2022/05/30 13:32:43;;;;;;;2.75;0.70;;;;;;;;;;5082595;28;20503;-67
2022/05/30 13:35:12;;;;;;;3.25;0.50;;;;;;;;;;5086271;28;20122;-67
2022/05/30 13:37:43;;;;;;;2.20;0.50;;;;;;;;;;5091024;28;20067;-67
2022/05/30 13:40:12;;;;;;;1.27;0.40;;;;;;;;;;5090900;28;20044;-67
2022/05/30 13:42:50;;;;;;;3.13;0.43;;;;;;;;;;5084719;28;20104;-67
2022/05/30 13:45:18;;;;;;;2.67;0.70;;;;;;;;;;5081665;28;20048;-67
2022/05/30 13:47:45;;;;;;;2.53;0.60;;;;;;;;;;5090886;28;20125;-67
2022/05/30 13:50:12;;;;;;;5.00;0.60;;;;;;;;;;5092216;28;20045;-67
2022/05/30 13:52:41;;;;;;;2.28;0.60;;;;;;;;;;5091998;28;20801;-66
2022/05/30 13:55:11;;;;;;;2.38;0.60;;;;;;;;;;5088984;28;20187;-66
2022/05/30 13:57:41;;;;;;;2.92;0.63;;;;;;;;;;5088522;28;20075;-66
2022/05/30 14:00:10;;;;;;;2.42;0.50;;;;;;;;;;5094419;28;20059;-66
2022/05/30 14:02:42;;;;;;;4.70;0.90;;;;;;;;;;5092951;28;20135;-66
2022/05/30 14:05:11;;;;;;;4.07;1.02;;;;;;;;;;5084109;28;21222;-66
2022/05/30 14:07:43;;;;;;;2.83;0.55;;;;;;;;;;5086857;28;20495;-66
2022/05/30 14:10:14;;;;;;;2.00;0.70;;;;;;;;;;5087579;28;20048;-66
2022/05/30 14:12:43;;;;;;;3.70;0.70;;;;;;;;;;5086732;28;20056;-66
2022/05/30 14:15:13;;;;;;;3.72;0.90;;;;;;;;;;5081645;28;20060;-66
2022/05/30 14:17:41;;;;;;;4.78;1.00;;;;;;;;;;5077132;28;20075;-66
2022/05/30 14:20:12;;;;;;;2.72;0.68;;;;;;;;;;5076293;28;20459;-66
2022/05/30 14:22:39;;;;;;;2.47;0.80;;;;;;;;;;5072924;28;20136;-66
2022/05/30 14:25:12;;;;;;;3.20;0.68;;;;;;;;;;5074017;28;20048;-66
2022/05/30 14:27:40;;;;;;;3.00;0.60;;;;;;;;;;5075097;28;20047;-66
2022/05/30 14:30:10;;;;;;;2.50;0.63;;;;;;;;;;5076722;28;20053;-66
2022/05/30 14:32:39;;;;;;;2.85;0.70;;;;;;;;;;5069899;28;20052;-66
2022/05/30 14:35:09;;;;;;;4.88;0.77;;;;;;;;;;5072786;28;20136;-66
2022/05/30 14:37:38;;;;;;;5.63;0.93;;;;;;;;;;5074130;28;20067;-66
2022/05/30 14:40:11;;;;;;;4.53;0.70;;;;;;;;;;5080818;28;20585;-67
2022/05/30 14:42:44;;;;;;;3.60;0.60;;;;;;;;;;5075770;28;20075;-67
2022/05/30 14:45:15;;;;;;;3.67;0.98;;;;;;;;;;5077424;28;20101;-67
2022/05/30 14:47:43;;;;;;;2.28;0.80;;;;;;;;;;5073433;28;20392;-67
2022/05/30 14:50:13;;;;;;;3.85;0.95;;;;;;;;;;5079540;28;20047;-67
2022/05/30 14:52:46;;;;;;;4.60;0.90;;;;;;;;;;5075605;28;20062;-67
2022/05/30 14:55:17;;;;;;;2.92;0.90;;;;;;;;;;5078420;28;20436;-67
2022/05/30 14:57:45;;;;;;;5.10;0.90;;;;;;;;;;5078801;28;20848;-67
2022/05/30 15:00:37;;;;;;;3.00;0.80;;;;;;;;;;5076708;28;20499;-67
2022/05/30 15:05:50;;;;;;;3.65;0.80;;;;;;;;;;5071640;28;20117;-66
2022/05/30 15:08:18;;;;;;;4.40;1.17;;;;;;;;;;5070253;28;20052;-67
2022/05/30 15:10:46;;;;;;;5.82;0.90;;;;;;;;;;5071541;28;20058;-67
2022/05/30 15:13:13;;;;;;;6.00;0.93;;;;;;;;;;5073154;28;20106;-67
2022/05/30 15:15:42;;;;;;;3.53;1.00;;;;;;;;;;5075652;28;20056;-67
2022/05/30 15:18:13;;;;;;;4.70;0.90;;;;;;;;;;5074210;28;20145;-66
2022/05/30 15:20:40;;;;;;;4.75;0.93;;;;;;;;;;5075514;28;20076;-66
2022/05/30 15:23:08;;;;;;;2.92;0.80;;;;;;;;;;5072029;28;20060;-67
2022/05/30 15:25:35;;;;;;;4.20;1.02;;;;;;;;;;5069518;28;20056;-66